Time;durP1;ratioP1;P1;durP2;ratioP2;P2;SDS_P1;SDS_P2;PMS_P1;PMS_P2;Temp;Humidity;BMP_temperature;BMP_pressure;BME280_temperature;BME280_humidity;BME280_pressure;Samples;Min_cycle;Max_cycle;Signal;HPM_P1;HPM_P2
2022/07/22 00:01:44;;;;;;;8.18;3.13;;;;;;;15.74;100.00;102066.03;4895337;29;20088;-67
2022/07/22 00:04:10;;;;;;;10.38;4.22;;;;;;;15.71;100.00;102069.13;4895431;29;20500;-67
2022/07/22 00:06:35;;;;;;;9.13;3.53;;;;;;;15.71;100.00;102075.34;4894945;29;20432;-67
2022/07/22 00:09:01;;;;;;;7.97;3.85;;;;;;;15.68;100.00;102073.03;4895261;29;20056;-67
2022/07/22 00:11:26;;;;;;;8.25;3.65;;;;;;;15.65;100.00;102072.59;4895220;29;20452;-67
2022/07/22 00:13:53;;;;;;;6.47;3.13;;;;;;;15.55;100.00;102070.28;4895410;29;20064;-67
2022/07/22 00:16:18;;;;;;;6.53;3.05;;;;;;;15.53;100.00;102072.31;4894494;29;20032;-68
2022/07/22 00:18:44;;;;;;;10.38;3.47;;;;;;;15.46;100.00;102074.19;4894637;29;20047;-67
2022/07/22 00:21:09;;;;;;;6.95;3.42;;;;;;;15.44;100.00;102068.16;4895056;29;20032;-67
2022/07/22 00:23:34;;;;;;;8.32;3.50;;;;;;;15.38;100.00;102068.94;4878235;29;20033;-67
2022/07/22 00:26:00;;;;;;;7.28;3.25;;;;;;;15.42;100.00;102075.59;4895145;29;20035;-67
2022/07/22 00:28:25;;;;;;;9.85;3.58;;;;;;;15.40;100.00;102067.72;4894812;29;20040;-67
2022/07/22 00:30:51;;;;;;;9.77;3.10;;;;;;;15.39;100.00;102065.25;4894866;29;20032;-67
2022/07/22 00:33:16;;;;;;;9.95;3.90;;;;;;;15.36;100.00;102063.78;4894943;29;20028;-67
2022/07/22 00:35:41;;;;;;;12.00;4.25;;;;;;;15.30;100.00;102056.47;4894793;29;20483;-67
2022/07/22 00:38:07;;;;;;;10.35;4.13;;;;;;;15.30;100.00;102056.47;4894825;29;20036;-67
2022/07/22 00:40:32;;;;;;;9.45;4.32;;;;;;;15.26;100.00;102056.06;4894670;29;20028;-67
2022/07/22 00:42:59;;;;;;;13.70;3.33;;;;;;;15.29;100.00;102065.59;4894859;29;20032;-67
2022/07/22 00:45:24;;;;;;;9.95;3.78;;;;;;;15.27;100.00;102062.25;4894605;29;20036;-67
2022/07/22 00:47:50;;;;;;;10.07;3.20;;;;;;;15.25;100.00;102058.97;4894712;29;20035;-67
2022/07/22 00:50:16;;;;;;;11.30;3.65;;;;;;;15.20;100.00;102051.50;4894544;29;20165;-67
2022/07/22 00:52:42;;;;;;;7.97;3.10;;;;;;;15.21;100.00;102055.00;4894609;29;20078;-67
2022/07/22 00:55:08;;;;;;;8.63;3.25;;;;;;;15.27;100.00;102057.75;4894392;29;20068;-67
2022/07/22 00:57:33;;;;;;;9.80;3.60;;;;;;;15.25;100.00;102053.59;4894239;29;20032;-67
2022/07/22 00:59:59;;;;;;;11.90;4.22;;;;;;;15.27;100.00;102060.44;4893982;29;20548;-67
2022/07/22 01:02:24;;;;;;;8.02;3.58;;;;;;;15.29;100.00;102055.66;4894297;29;20068;-67
2022/07/22 01:04:50;;;;;;;8.02;3.88;;;;;;;15.31;100.00;102060.84;4877696;29;20400;-67
2022/07/22 01:07:15;;;;;;;10.18;3.83;;;;;;;15.31;100.00;102059.00;4894248;29;20036;-67
2022/07/22 01:09:45;;;;;;;7.78;3.47;;;;;;;15.32;100.00;102057.94;4893798;29;20080;-67
2022/07/22 01:12:11;;;;;;;12.45;4.20;;;;;;;15.24;100.00;102036.59;4894351;29;20389;-67
2022/07/22 01:14:37;;;;;;;7.35;3.50;;;;;;;15.31;100.00;102059.00;4894335;29;20037;-67
2022/07/22 01:17:02;;;;;;;7.15;3.00;;;;;;;15.30;100.00;102051.97;4894170;29;20044;-67
2022/07/22 01:19:28;;;;;;;11.70;4.18;;;;;;;15.31;100.00;102047.41;4894234;29;20029;-72
2022/07/22 01:21:53;;;;;;;12.43;4.40;;;;;;;15.24;100.00;102033.09;4894153;29;20043;-72
2022/07/22 01:24:19;;;;;;;12.88;4.97;;;;;;;15.34;100.00;102044.31;4894050;29;20120;-72
2022/07/22 01:26:44;;;;;;;13.82;4.55;;;;;;;15.32;100.00;102041.81;4894293;29;20044;-72
2022/07/22 01:29:09;;;;;;;8.02;3.25;;;;;;;15.35;100.00;102043.28;4893861;29;20080;-72
2022/07/22 01:31:35;;;;;;;7.13;3.17;;;;;;;15.33;100.00;102046.19;4894129;29;20105;-72
2022/07/22 01:34:00;;;;;;;16.05;3.92;;;;;;;15.35;100.00;102048.66;4894041;29;20037;-72
2022/07/22 01:36:26;;;;;;;11.25;3.67;;;;;;;15.26;100.00;102034.56;4894022;29;20128;-73
2022/07/22 01:38:52;;;;;;;11.88;3.88;;;;;;;15.30;100.00;102043.03;4894096;29;20024;-72
2022/07/22 01:41:17;;;;;;;11.70;4.63;;;;;;;15.30;100.00;102041.22;4877368;29;20032;-72
2022/07/22 01:43:43;;;;;;;7.95;4.03;;;;;;;15.30;100.00;102029.59;4893998;29;20033;-72
2022/07/22 01:46:09;;;;;;;13.85;4.22;;;;;;;15.28;100.00;102032.50;4893748;29;20033;-72
2022/07/22 01:48:34;;;;;;;10.35;3.78;;;;;;;15.27;100.00;102033.56;4893905;29;20572;-72
2022/07/22 01:51:00;;;;;;;7.82;3.20;;;;;;;15.30;100.00;102034.97;4876956;29;20059;-72
2022/07/22 01:53:25;;;;;;;11.30;4.30;;;;;;;15.33;100.00;102040.81;4877034;29;20064;-72
2022/07/22 01:55:50;;;;;;;8.88;4.18;;;;;;;15.27;100.00;102030.88;4893841;29;20044;-73
2022/07/22 01:58:16;;;;;;;9.90;4.10;;;;;;;15.32;100.00;102041.81;4893902;29;20099;-72
2022/07/22 02:00:42;;;;;;;8.90;4.25;;;;;;;15.33;100.00;102042.69;4893798;29;20131;-72
2022/07/22 02:03:07;;;;;;;13.20;4.18;;;;;;;15.31;100.00;102032.09;4893575;29;20190;-72
2022/07/22 02:05:33;;;;;;;9.85;3.85;;;;;;;15.32;100.00;102043.69;4893487;29;20045;-72
2022/07/22 02:08:03;;;;;;;10.57;4.53;;;;;;;15.33;100.00;102043.50;4893523;29;20127;-72
2022/07/22 02:10:28;;;;;;;10.98;4.45;;;;;;;15.34;100.00;102038.94;4883804;29;20088;-72
2022/07/22 02:12:54;;;;;;;7.97;3.70;;;;;;;15.33;100.00;102035.44;4892375;29;20080;-72
2022/07/22 02:15:20;;;;;;;12.02;4.10;;;;;;;15.35;100.00;102040.59;4853737;29;20060;-73
2022/07/22 02:17:45;;;;;;;15.52;5.50;;;;;;;15.37;100.00;102041.22;4875691;29;20037;-73
2022/07/22 02:20:10;;;;;;;15.45;4.05;;;;;;;15.39;100.00;102035.66;4875663;29;20104;-73
2022/07/22 02:22:36;;;;;;;10.85;4.68;;;;;;;15.32;100.00;102024.88;4890785;29;20481;-73
2022/07/22 02:25:02;;;;;;;15.05;5.53;;;;;;;15.38;100.00;102032.16;4879584;29;20035;-72
2022/07/22 02:27:28;;;;;;;9.05;4.90;;;;;;;15.38;100.00;102042.91;4889641;29;20119;-72
2022/07/22 02:29:53;;;;;;;7.88;3.35;;;;;;;15.42;100.00;102041.47;4893499;29;20069;-73
2022/07/22 02:32:18;;;;;;;9.15;3.60;;;;;;;15.42;100.00;102032.56;4875521;29;20060;-72
2022/07/22 02:34:44;;;;;;;10.38;4.68;;;;;;;15.40;100.00;102035.44;4885003;29;20117;-72
2022/07/22 02:37:09;;;;;;;8.95;3.58;;;;;;;15.40;100.00;102031.94;4888767;29;20037;-72
2022/07/22 02:39:35;;;;;;;9.40;4.22;;;;;;;15.43;100.00;102043.13;4875411;29;20551;-73
2022/07/22 02:42:00;;;;;;;10.43;4.38;;;;;;;15.43;100.00;102035.06;4894011;29;20033;-73
2022/07/22 02:44:25;;;;;;;11.05;3.67;;;;;;;15.43;100.00;102034.22;4891324;29;20541;-72
2022/07/22 02:46:50;;;;;;;11.85;4.90;;;;;;;15.41;100.00;102034.44;4873911;29;20075;-73
2022/07/22 02:49:16;;;;;;;10.40;4.28;;;;;;;15.42;100.00;102035.25;4862461;29;20041;-73
2022/07/22 02:51:41;;;;;;;10.85;3.92;;;;;;;15.40;100.00;102035.44;4881334;29;20057;-73
2022/07/22 02:54:07;;;;;;;10.43;4.47;;;;;;;15.35;100.00;102024.47;4886346;29;20389;-73
2022/07/22 02:56:32;;;;;;;8.75;3.42;;;;;;;15.41;100.00;102036.31;4882653;29;20047;-73
2022/07/22 02:58:57;;;;;;;10.77;4.15;;;;;;;15.43;100.00;102034.22;4895380;29;20044;-72
2022/07/22 03:01:23;;;;;;;14.55;5.18;;;;;;;15.40;100.00;102030.06;4887606;29;20029;-73
2022/07/22 03:03:48;;;;;;;11.38;4.57;;;;;;;15.38;100.00;102034.84;4892892;29;20029;-73
2022/07/22 03:06:14;;;;;;;11.95;4.55;;;;;;;15.38;100.00;102034.00;4896162;29;20417;-73
2022/07/22 03:08:39;;;;;;;11.77;4.47;;;;;;;15.37;100.00;102037.72;4887069;29;20047;-73
2022/07/22 03:11:05;;;;;;;11.93;4.18;;;;;;;15.36;100.00;102028.81;4878072;29;20669;-73
2022/07/22 03:13:31;;;;;;;9.18;4.45;;;;;;;15.31;100.00;102024.03;4895604;29;20051;-73
2022/07/22 03:15:56;;;;;;;13.15;5.15;;;;;;;15.38;100.00;102029.47;4890604;29;20037;-73
2022/07/22 03:18:22;;;;;;;13.27;4.93;;;;;;;15.39;100.00;102027.59;4878413;29;20536;-73
2022/07/22 03:20:47;;;;;;;8.88;4.15;;;;;;;15.37;100.00;102024.28;4878000;29;20037;-72
2022/07/22 03:23:13;;;;;;;8.75;4.07;;;;;;;15.37;100.00;102024.28;4895287;29;20037;-73
2022/07/22 03:25:38;;;;;;;7.95;4.18;;;;;;;15.33;100.00;102018.47;4881512;29;20037;-73
2022/07/22 03:28:04;;;;;;;13.48;6.70;;;;;;;15.38;100.00;102025.91;4885835;29;20045;-73
2022/07/22 03:30:29;;;;;;;12.02;3.95;;;;;;;15.38;100.00;102020.53;4882186;29;20500;-73
2022/07/22 03:32:55;;;;;;;10.57;4.65;;;;;;;15.40;100.00;102013.13;4882111;29;20149;-73
2022/07/22 03:35:20;;;;;;;10.88;3.67;;;;;;;15.37;100.00;102010.84;4885301;29;20061;-73
2022/07/22 03:37:46;;;;;;;13.93;4.70;;;;;;;15.33;100.00;102005.03;4870696;29;20040;-73
2022/07/22 03:40:11;;;;;;;10.25;4.10;;;;;;;15.35;100.00;102011.03;4884248;29;20097;-72
2022/07/22 03:42:37;;;;;;;11.80;4.20;;;;;;;15.35;100.00;102011.03;4878296;29;20108;-73
2022/07/22 03:45:03;;;;;;;12.52;5.13;;;;;;;15.36;100.00;102015.38;4878484;29;20032;-73
2022/07/22 03:47:28;;;;;;;9.20;4.60;;;;;;;15.37;100.00;102013.53;4891579;29;20044;-73
2022/07/22 03:49:53;;;;;;;18.73;6.28;;;;;;;15.36;100.00;102015.38;4886047;29;20037;-73
2022/07/22 03:52:19;;;;;;;9.30;4.43;;;;;;;15.33;100.00;102013.94;4879300;29;20100;-73
2022/07/22 03:54:44;;;;;;;9.02;3.97;;;;;;;15.39;100.00;102019.53;4895179;29;20036;-73
2022/07/22 03:57:10;;;;;;;12.55;5.57;;;;;;;15.37;100.00;102010.84;4884843;29;20561;-72
2022/07/22 03:59:36;;;;;;;13.25;5.03;;;;;;;15.37;100.00;102014.34;4881481;29;20548;-73
2022/07/22 04:02:02;;;;;;;10.80;3.80;;;;;;;15.38;100.00;102021.41;4886964;29;20108;-73
2022/07/22 04:04:27;;;;;;;10.10;3.63;;;;;;;15.37;100.00;102025.09;4879509;29;20041;-73
2022/07/22 04:06:53;;;;;;;12.82;5.28;;;;;;;15.38;100.00;102020.53;4886409;29;20040;-73
2022/07/22 04:09:19;;;;;;;9.07;4.80;;;;;;;15.38;100.00;102021.41;4892071;29;20048;-73
2022/07/22 04:11:44;;;;;;;16.27;4.18;;;;;;;15.37;100.00;102027.78;4893854;29;20383;-73
2022/07/22 04:14:10;;;;;;;7.93;3.30;;;;;;;15.34;100.00;102014.75;4876650;29;20033;-73
2022/07/22 04:16:35;;;;;;;12.15;4.45;;;;;;;15.41;100.00;102026.38;4890448;29;20033;-73
2022/07/22 04:19:02;;;;;;;16.83;5.32;;;;;;;15.39;100.00;102024.91;4877420;29;20951;-73
2022/07/22 04:21:27;;;;;;;12.05;4.63;;;;;;;15.41;100.00;102029.06;4880428;29;20113;-73
2022/07/22 04:23:53;;;;;;;11.90;5.00;;;;;;;15.43;100.00;102028.84;4894310;29;20036;-73
2022/07/22 04:26:19;;;;;;;13.65;4.13;;;;;;;15.45;100.00;102035.69;4892743;29;20439;-73
2022/07/22 04:28:44;;;;;;;12.27;4.32;;;;;;;15.46;100.00;102028.47;4890000;29;20046;-73
2022/07/22 04:31:09;;;;;;;10.65;3.72;;;;;;;15.49;100.00;102033.44;4889542;29;20037;-73
2022/07/22 04:33:35;;;;;;;11.05;5.15;;;;;;;15.51;100.00;102031.34;4893635;29;20040;-73
2022/07/22 04:36:00;;;;;;;11.18;4.75;;;;;;;15.42;100.00;102017.28;4892440;29;20064;-73
2022/07/22 04:38:25;;;;;;;10.05;3.88;;;;;;;15.50;100.00;102018.97;4890686;29;20052;-73
2022/07/22 04:40:51;;;;;;;11.80;4.68;;;;;;;15.51;100.00;102023.28;4893450;29;20137;-68
2022/07/22 04:43:16;;;;;;;10.98;3.72;;;;;;;15.53;100.00;102018.56;4890186;29;20037;-67
2022/07/22 04:45:41;;;;;;;10.38;3.17;;;;;;;15.54;100.00;102018.34;4876680;29;20044;-67
2022/07/22 04:48:07;;;;;;;10.18;4.35;;;;;;;15.49;100.00;102003.88;4876541;29;20089;-68
2022/07/22 04:50:32;;;;;;;13.52;4.40;;;;;;;15.57;100.00;102017.13;4876224;29;20097;-68
2022/07/22 04:52:58;;;;;;;12.30;3.38;;;;;;;15.61;100.00;102017.53;4876097;29;20029;-68
2022/07/22 04:55:23;;;;;;;12.00;4.25;;;;;;;15.64;100.00;102020.69;4859346;29;20040;-68
2022/07/22 04:57:48;;;;;;;8.07;3.63;;;;;;;15.67;100.00;102012.19;4876067;29;20039;-68
2022/07/22 05:00:15;;;;;;;14.07;4.75;;;;;;;15.65;100.00;102010.75;4876287;29;20080;-66
2022/07/22 05:02:41;;;;;;;9.18;3.80;;;;;;;15.69;100.00;102012.88;4875438;29;20043;-66
2022/07/22 05:05:07;;;;;;;10.07;4.18;;;;;;;15.67;100.00;102011.38;4875940;29;20452;-66
2022/07/22 05:07:32;;;;;;;8.48;3.60;;;;;;;15.73;100.00;102018.66;4875807;29;20032;-66
2022/07/22 05:09:57;;;;;;;11.20;3.95;;;;;;;15.75;100.00;102017.44;4867864;29;20071;-66
2022/07/22 05:12:22;;;;;;;9.57;4.85;;;;;;;15.76;100.00;102013.69;4877236;29;20043;-66
2022/07/22 05:14:48;;;;;;;11.18;4.18;;;;;;;15.82;100.00;102011.22;4894105;29;20124;-66
2022/07/22 05:17:13;;;;;;;11.77;4.72;;;;;;;15.84;100.00;102012.69;4893884;29;20433;-66
2022/07/22 05:19:39;;;;;;;6.55;3.28;;;;;;;15.84;100.00;102009.16;4894092;29;20500;-67
2022/07/22 05:22:08;;;;;;;9.07;3.83;;;;;;;15.85;100.00;102005.44;4894438;29;20415;-67
2022/07/22 05:24:34;;;;;;;10.43;4.22;;;;;;;15.89;100.00;102015.59;4894382;29;20033;-67
2022/07/22 05:26:59;;;;;;;12.75;4.47;;;;;;;15.93;100.00;102013.34;4894102;29;20043;-67
2022/07/22 05:29:25;;;;;;;13.48;4.95;;;;;;;15.96;100.00;102016.44;4894128;29;20037;-66
2022/07/22 05:31:50;;;;;;;10.18;4.80;;;;;;;15.98;100.00;102011.69;4894398;29;20028;-67
2022/07/22 05:34:15;;;;;;;12.80;5.18;;;;;;;16.03;98.94;102018.31;4894101;29;20374;-67
2022/07/22 05:36:41;;;;;;;11.40;5.40;;;;;;;16.05;99.86;102016.25;4877329;29;20443;-69
2022/07/22 05:39:06;;;;;;;10.98;4.25;;;;;;;16.10;99.43;102021.84;4877393;29;20036;-67
2022/07/22 05:41:31;;;;;;;12.05;4.13;;;;;;;16.15;99.91;102024.75;4894012;29;20397;-67
2022/07/22 05:43:57;;;;;;;9.63;3.47;;;;;;;16.18;98.74;102022.47;4886759;29;20119;-66
2022/07/22 05:46:22;;;;;;;13.65;4.35;;;;;;;16.24;99.15;102018.13;4877461;29;20600;-67
2022/07/22 05:48:48;;;;;;;10.85;6.03;;;;;;;16.30;99.04;102022.72;4893886;29;20189;-67
2022/07/22 05:51:14;;;;;;;9.43;4.25;;;;;;;16.33;98.45;102021.47;4894069;29;20116;-66
2022/07/22 05:53:40;;;;;;;10.48;4.30;;;;;;;16.33;97.32;102033.06;4893897;29;20060;-67
2022/07/22 05:56:06;;;;;;;10.70;4.00;;;;;;;16.36;97.61;102029.13;4893840;29;20068;-67
2022/07/22 05:58:32;;;;;;;11.60;4.18;;;;;;;16.41;97.32;102026.66;4893828;29;20044;-66
2022/07/22 06:00:58;;;;;;;10.95;5.38;;;;;;;16.37;97.38;102020.00;4893971;29;21071;-66
2022/07/22 06:03:24;;;;;;;15.35;4.30;;;;;;;16.37;96.50;102017.31;4893573;29;20107;-66
2022/07/22 06:05:49;;;;;;;16.45;5.13;;;;;;;16.33;95.10;102021.47;4893873;29;20605;-67
2022/07/22 06:08:14;;;;;;;7.70;3.50;;;;;;;16.33;96.04;102019.59;4893812;29;20392;-66
2022/07/22 06:10:40;;;;;;;12.88;4.15;;;;;;;16.38;97.38;102022.50;4879003;29;20513;-67
2022/07/22 06:13:05;;;;;;;8.95;3.53;;;;;;;16.43;96.76;102020.03;4875252;29;20033;-66
2022/07/22 06:15:30;;;;;;;11.48;4.05;;;;;;;16.46;97.32;102008.00;4876385;29;20041;-67
2022/07/22 06:17:56;;;;;;;9.85;3.90;;;;;;;16.61;97.12;102021.25;4878187;29;20119;-66
2022/07/22 06:20:21;;;;;;;7.25;2.85;;;;;;;16.68;96.12;102026.66;4878626;29;20149;-66
2022/07/22 06:22:47;;;;;;;10.32;3.22;;;;;;;16.73;94.47;102024.16;4878411;29;20036;-67
2022/07/22 06:25:12;;;;;;;13.50;3.17;;;;;;;16.81;94.47;102030.19;4878624;29;20033;-67
2022/07/22 06:27:38;;;;;;;11.95;2.88;;;;;;;16.85;91.42;102038.69;4871145;29;20040;-66
2022/07/22 06:30:04;;;;;;;7.70;3.00;;;;;;;16.80;89.88;102030.41;4878355;29;20045;-66
2022/07/22 06:32:29;;;;;;;9.27;3.33;;;;;;;16.78;88.67;102038.69;4878509;29;20040;-67
2022/07/22 06:34:54;;;;;;;11.52;2.97;;;;;;;16.78;90.41;102033.28;4878471;29;20393;-67
2022/07/22 06:37:20;;;;;;;7.88;3.70;;;;;;;16.81;90.61;102032.06;4878567;29;20037;-68
2022/07/22 06:39:47;;;;;;;10.80;3.75;;;;;;;16.95;89.27;102038.25;4878486;29;20859;-66
2022/07/22 06:42:13;;;;;;;8.52;3.10;;;;;;;16.93;89.14;102035.78;4861897;29;20033;-65
2022/07/22 06:44:38;;;;;;;8.57;3.15;;;;;;;17.01;88.61;102030.16;4878495;29;20120;-66
2022/07/22 06:47:03;;;;;;;7.25;2.72;;;;;;;17.09;88.23;102035.31;4861403;29;20072;-65
2022/07/22 06:49:29;;;;;;;10.70;3.53;;;;;;;17.12;86.69;102033.25;4878035;29;20097;-66
2022/07/22 06:51:54;;;;;;;9.55;4.20;;;;;;;17.11;87.10;102028.88;4877863;29;20041;-65
2022/07/22 06:54:19;;;;;;;9.20;4.13;;;;;;;17.12;88.51;102023.28;4878076;29;20438;-65
2022/07/22 06:56:45;;;;;;;14.73;4.45;;;;;;;17.14;88.18;102017.69;4878254;29;20037;-65
2022/07/22 06:59:10;;;;;;;8.95;3.53;;;;;;;17.26;86.71;102019.50;4878245;29;20033;-65
2022/07/22 07:01:36;;;;;;;5.93;3.22;;;;;;;17.35;85.43;102022.00;4877971;29;20112;-65
2022/07/22 07:04:01;;;;;;;6.25;2.95;;;;;;;17.41;83.64;102019.25;4877803;29;20031;-65
2022/07/22 07:06:27;;;;;;;5.05;2.83;;;;;;;17.49;84.52;102020.88;4877683;29;20476;-65
2022/07/22 07:08:52;;;;;;;6.97;3.42;;;;;;;17.52;82.93;102026.66;4877550;29;20037;-65
2022/07/22 07:11:18;;;;;;;8.48;3.28;;;;;;;17.57;83.65;102027.91;4870147;29;20148;-65
2022/07/22 07:13:43;;;;;;;10.68;3.30;;;;;;;17.61;80.78;102026.44;4877282;29;20041;-65
2022/07/22 07:16:10;;;;;;;5.72;3.15;;;;;;;17.67;80.61;102025.56;4877441;29;20040;-65
2022/07/22 07:18:35;;;;;;;15.48;3.97;;;;;;;17.78;81.29;102024.88;4876988;29;20576;-65
2022/07/22 07:21:00;;;;;;;10.88;4.28;;;;;;;17.89;82.47;102023.41;4876619;29;20025;-65
2022/07/22 07:23:26;;;;;;;7.85;3.30;;;;;;;17.92;76.87;102014.88;4877116;29;20504;-66
2022/07/22 07:25:51;;;;;;;6.47;2.60;;;;;;;17.94;78.63;102010.91;4876790;29;20353;-65
2022/07/22 07:28:17;;;;;;;6.22;3.13;;;;;;;17.95;77.99;102015.28;4877335;29;20049;-67
2022/07/22 07:30:42;;;;;;;8.55;4.35;;;;;;;17.93;76.95;102006.56;4877025;29;20033;-67
2022/07/22 07:33:07;;;;;;;9.25;4.00;;;;;;;17.86;78.48;102000.38;4876968;29;20159;-67
2022/07/22 07:35:33;;;;;;;9.65;3.72;;;;;;;17.98;79.60;102010.50;4876894;29;20029;-67
2022/07/22 07:37:59;;;;;;;5.38;2.13;;;;;;;17.98;75.58;102014.03;4877061;29;20033;-69
2022/07/22 07:40:24;;;;;;;9.68;2.13;;;;;;;17.98;78.49;102014.03;4876923;29;20033;-69
2022/07/22 07:42:49;;;;;;;8.00;3.38;;;;;;;17.89;78.84;102009.91;4877214;29;20033;-69
2022/07/22 07:45:15;;;;;;;8.88;2.72;;;;;;;17.77;76.75;102000.84;4877080;29;20025;-69
2022/07/22 07:47:40;;;;;;;5.13;2.10;;;;;;;17.65;78.25;102006.06;4876865;29;20082;-69
2022/07/22 07:50:07;;;;;;;2.95;1.45;;;;;;;17.65;76.07;102014.16;4876485;29;20031;-69
2022/07/22 07:52:38;;;;;;;7.18;1.77;;;;;;;17.60;75.49;102011.28;4876244;29;20049;-69
2022/07/22 07:55:04;;;;;;;1.98;1.67;;;;;;;17.64;76.93;102005.25;4876770;29;20489;-69
2022/07/22 07:57:29;;;;;;;3.65;1.88;;;;;;;17.78;75.67;102010.56;4876728;29;20718;-69
2022/07/22 07:59:55;;;;;;;6.00;1.80;;;;;;;17.85;75.37;102009.53;4876642;29;20123;-69
2022/07/22 08:02:20;;;;;;;5.72;1.52;;;;;;;17.99;75.49;102006.75;4876787;29;20032;-69
2022/07/22 08:04:45;;;;;;;3.80;1.33;;;;;;;18.04;73.28;102009.63;4876915;29;20064;-69
2022/07/22 08:07:11;;;;;;;2.42;1.40;;;;;;;18.10;73.87;102014.13;4876441;29;20037;-69
2022/07/22 08:09:37;;;;;;;5.70;1.90;;;;;;;18.11;74.39;102018.50;4882715;29;20076;-69
2022/07/22 08:12:04;;;;;;;4.82;1.65;;;;;;;18.20;73.30;102014.47;4895255;29;20049;-69
2022/07/22 08:14:30;;;;;;;2.53;1.90;;;;;;;18.22;74.01;102011.56;4894773;29;20152;-69
2022/07/22 08:16:55;;;;;;;3.88;1.80;;;;;;;18.24;72.75;102020.28;4895254;29;20123;-68
2022/07/22 08:19:21;;;;;;;2.80;1.45;;;;;;;18.35;72.40;102012.28;4894952;29;20036;-68
2022/07/22 08:21:46;;;;;;;5.38;1.58;;;;;;;18.59;72.60;102007.94;4895053;29;20085;-68
2022/07/22 08:24:11;;;;;;;4.55;2.10;;;;;;;18.92;69.07;102014.13;4894916;29;20084;-69
2022/07/22 08:26:37;;;;;;;1.90;1.70;;;;;;;19.59;65.67;102003.31;4894915;29;20073;-69
2022/07/22 08:29:05;;;;;;;3.67;1.73;;;;;;;20.56;63.51;102001.25;4894586;29;20044;-69
2022/07/22 08:31:34;;;;;;;3.22;1.52;;;;;;;21.55;59.73;101996.88;4894829;29;20037;-69
2022/07/22 08:34:00;;;;;;;1.42;1.30;;;;;;;23.08;53.63;101995.84;4894847;29;20101;-69
2022/07/22 08:36:25;;;;;;;1.95;1.30;;;;;;;24.21;49.55;102006.06;4894984;29;20028;-69
2022/07/22 08:38:51;;;;;;;4.78;1.00;;;;;;;25.32;48.23;101999.66;4894346;29;20036;-69
2022/07/22 08:41:18;;;;;;;4.53;1.50;;;;;;;26.37;45.32;101989.44;4895019;29;20357;-69
2022/07/22 08:43:46;;;;;;;4.13;1.23;;;;;;;27.22;42.54;101995.00;4894894;29;20036;-69
2022/07/22 08:46:12;;;;;;;2.92;1.42;;;;;;;27.39;41.35;101988.31;4894880;29;20060;-69
2022/07/22 08:48:39;;;;;;;1.50;1.35;;;;;;;27.08;42.40;101983.78;4894657;29;20374;-68
2022/07/22 08:51:05;;;;;;;7.70;1.50;;;;;;;27.93;44.33;101971.00;4894387;29;20388;-69
2022/07/22 08:53:30;;;;;;;4.90;1.77;;;;;;;28.31;41.70;101974.75;4894333;29;20044;-69
2022/07/22 08:55:56;;;;;;;5.82;1.67;;;;;;;27.08;43.37;101975.56;4877865;29;20032;-69
2022/07/22 08:58:21;;;;;;;1.45;1.35;;;;;;;25.71;44.60;101969.16;4894367;29;20455;-69
2022/07/22 09:01:04;;;;;;;1.20;1.00;;;;;;;25.44;49.03;101974.84;4894437;29;20044;-69
2022/07/22 09:03:29;;;;;;;6.00;1.80;;;;;;;24.90;47.93;101977.91;4894546;29;20029;-69
2022/07/22 09:05:55;;;;;;;2.20;0.95;;;;;;;23.80;49.30;101981.97;4894273;29;20071;-69
2022/07/22 09:08:21;;;;;;;1.92;1.33;;;;;;;22.79;51.48;101981.53;4894243;29;20416;-67
2022/07/22 09:10:47;;;;;;;5.80;2.30;;;;;;;21.99;53.88;101983.56;4894056;29;20096;-67
2022/07/22 09:13:15;;;;;;;2.72;1.55;;;;;;;21.32;56.48;101993.13;4894588;29;20056;-67
2022/07/22 09:15:49;;;;;;;2.25;1.70;;;;;;;20.91;59.58;101995.00;4894114;29;20108;-67
2022/07/22 09:18:15;;;;;;;3.13;1.13;;;;;;;20.67;60.82;101990.66;4893978;29;20131;-68
2022/07/22 09:20:41;;;;;;;4.35;2.67;;;;;;;20.41;59.21;101981.06;4894067;29;20107;-69
2022/07/22 09:23:22;;;;;;;6.13;2.10;;;;;;;20.43;59.89;101984.38;4893954;29;20093;-69
2022/07/22 09:25:47;;;;;;;5.20;2.43;;;;;;;20.42;57.93;101985.44;4894173;29;20484;-69
2022/07/22 09:28:16;;;;;;;4.53;2.00;;;;;;;20.60;59.90;101973.69;4894203;29;20360;-69
2022/07/22 09:30:50;;;;;;;6.60;2.38;;;;;;;20.90;58.73;101981.69;4894135;29;20044;-69
2022/07/22 09:33:16;;;;;;;5.78;1.52;;;;;;;21.17;56.94;101973.84;4894173;29;20495;-69
2022/07/22 09:35:42;;;;;;;2.85;1.83;;;;;;;21.35;56.44;101965.53;4894205;29;20464;-69
2022/07/22 09:38:10;;;;;;;3.30;2.00;;;;;;;21.44;57.79;101968.72;4894059;29;20060;-69
2022/07/22 09:40:40;;;;;;;5.88;2.55;;;;;;;21.62;56.09;101973.13;4894172;29;20024;-69
2022/07/22 09:43:12;;;;;;;6.40;2.22;;;;;;;21.76;55.49;101971.75;4894227;29;20061;-69
2022/07/22 09:45:58;;;;;;;4.65;1.70;;;;;;;21.86;56.98;101962.97;4894136;29;20369;-69
2022/07/22 09:48:24;;;;;;;5.85;1.98;;;;;;;21.64;56.37;101960.97;4893407;29;20067;-67
2022/07/22 09:50:51;;;;;;;4.72;2.17;;;;;;;21.29;56.25;101962.94;4897600;29;20040;-67
2022/07/22 09:53:18;;;;;;;3.20;1.42;;;;;;;20.97;57.02;101960.69;4897805;29;20093;-72
2022/07/22 09:55:44;;;;;;;3.25;1.50;;;;;;;20.72;59.49;101958.22;4897571;29;20036;-69
2022/07/22 09:58:12;;;;;;;4.88;1.90;;;;;;;20.51;60.57;101960.47;4897961;29;20361;-71
2022/07/22 10:00:39;;;;;;;3.03;2.05;;;;;;;20.35;58.68;101961.16;4897715;29;20464;-71
2022/07/22 10:03:12;;;;;;;1.55;1.27;;;;;;;20.06;59.86;101955.59;4880879;29;20401;-71
2022/07/22 10:05:39;;;;;;;5.10;2.42;;;;;;;19.94;60.36;101943.94;4897758;29;20041;-71
2022/07/22 10:08:06;;;;;;;1.95;1.50;;;;;;;19.84;62.39;101957.19;4897405;29;20052;-71
2022/07/22 10:10:34;;;;;;;2.83;2.08;;;;;;;19.79;62.09;101957.88;4897135;29;20556;-72
2022/07/22 10:13:01;;;;;;;5.57;1.95;;;;;;;19.79;60.67;101960.59;4897517;29;20084;-71
2022/07/22 10:15:27;;;;;;;3.47;1.48;;;;;;;19.91;61.87;101961.47;4897432;29;20099;-71
2022/07/22 10:17:55;;;;;;;2.83;1.83;;;;;;;19.99;61.50;101967.56;4897274;29;20053;-71
2022/07/22 10:20:23;;;;;;;4.53;2.00;;;;;;;20.02;60.98;101973.38;4897448;29;20029;-72
2022/07/22 10:22:57;;;;;;;2.92;1.85;;;;;;;20.11;62.51;101976.56;4880283;29;20426;-72
2022/07/22 10:25:26;;;;;;;4.93;2.40;;;;;;;20.33;60.19;101960.56;4897169;29;20048;-71
2022/07/22 10:27:53;;;;;;;5.00;1.98;;;;;;;20.70;59.00;101965.81;4880081;29;20028;-71
2022/07/22 10:30:22;;;;;;;6.13;1.95;;;;;;;20.96;58.51;101957.16;4897228;29;20033;-71
2022/07/22 10:33:09;;;;;;;4.32;1.35;;;;;;;21.08;59.17;101956.28;4897153;29;20035;-72
2022/07/22 10:35:37;;;;;;;9.25;2.67;;;;;;;21.33;58.00;101967.66;4897035;29;20608;-72
2022/07/22 10:38:07;;;;;;;3.78;1.83;;;;;;;21.58;58.34;101959.19;4897144;29;20092;-73
2022/07/22 10:40:57;;;;;;;3.78;1.45;;;;;;;21.72;57.12;101967.03;4896912;29;20552;-75
2022/07/22 10:43:43;;;;;;;7.03;2.10;;;;;;;21.58;55.67;101961.09;4896944;29;20040;-71
2022/07/22 10:46:09;;;;;;;4.57;1.90;;;;;;;21.69;56.65;101960.22;4883563;29;20040;-71
2022/07/22 10:48:37;;;;;;;7.82;2.08;;;;;;;21.72;55.82;101956.19;4896930;29;20040;-71
2022/07/22 10:51:06;;;;;;;3.70;1.95;;;;;;;21.66;56.91;101968.84;4896815;29;20036;-72
2022/07/22 10:53:57;;;;;;;3.20;2.10;;;;;;;21.53;57.99;101961.00;4896763;29;20062;-71
2022/07/22 10:56:31;;;;;;;5.30;2.93;;;;;;;21.35;59.14;101954.69;4896783;29;20039;-72
2022/07/22 10:58:57;;;;;;;3.70;1.80;;;;;;;21.21;56.31;101956.84;4896538;29;20136;-72
2022/07/22 11:01:29;;;;;;;3.67;1.58;;;;;;;21.09;57.12;101955.22;4895783;29;20042;-72
2022/07/22 11:03:55;;;;;;;4.25;2.35;;;;;;;20.99;56.64;101948.53;4896438;29;20040;-71
2022/07/22 11:06:24;;;;;;;2.90;2.00;;;;;;;20.78;59.09;101941.03;4896433;29;20116;-72
2022/07/22 11:08:58;;;;;;;3.78;2.13;;;;;;;20.62;59.75;101937.16;4896080;29;20437;-73
2022/07/22 11:11:37;;;;;;;2.72;2.05;;;;;;;20.82;58.56;101939.47;4896471;29;20056;-72
2022/07/22 11:14:03;;;;;;;2.90;1.77;;;;;;;21.18;57.07;101938.31;4896315;29;20039;-71